createdAt,value
2023-04-18T00:01:21.700Z,3.70
2023-04-18T00:04:25.399Z,3.60
2023-04-18T00:07:28.047Z,4.40
2023-04-18T00:10:30.967Z,4.20
2023-04-18T00:13:33.771Z,3.40
2023-04-18T00:16:38.195Z,3.63
2023-04-18T00:19:43.373Z,5.20
2023-04-18T00:22:55.089Z,4.68
2023-04-18T00:25:57.750Z,6.43
2023-04-18T00:29:00.312Z,3.30
2023-04-18T00:32:02.845Z,3.40
2023-04-18T00:35:06.900Z,3.22
2023-04-18T00:38:09.451Z,4.70
2023-04-18T00:41:12.295Z,5.77
2023-04-18T00:44:15.097Z,3.30
2023-04-18T00:47:17.752Z,3.97
2023-04-18T00:50:21.174Z,4.53
2023-04-18T00:53:24.070Z,2.97
2023-04-18T00:56:26.738Z,4.40
2023-04-18T00:59:29.414Z,4.10
2023-04-18T01:02:34.018Z,5.47
2023-04-18T01:05:36.747Z,3.28
2023-04-18T01:08:42.195Z,4.20
2023-04-18T01:11:44.697Z,7.87
2023-04-18T01:14:47.696Z,3.47
2023-04-18T01:17:52.469Z,5.85
2023-04-18T01:20:57.137Z,4.60
2023-04-18T01:24:17.185Z,3.75
2023-04-18T01:27:20.033Z,4.30
2023-04-18T01:30:22.502Z,4.00
2023-04-18T01:33:25.019Z,6.60
2023-04-18T01:36:27.688Z,3.40
2023-04-18T01:39:30.169Z,4.50
2023-04-18T01:42:33.056Z,5.40
2023-04-18T01:45:35.482Z,4.27
2023-04-18T01:48:38.265Z,5.70
2023-04-18T01:51:41.019Z,4.88
2023-04-18T01:54:43.502Z,4.40
2023-04-18T01:57:46.248Z,6.17
2023-04-18T02:00:51.561Z,3.73
2023-04-18T02:03:54.377Z,5.05
2023-04-18T02:06:57.227Z,4.93
2023-04-18T02:10:00.016Z,6.32
2023-04-18T02:13:02.621Z,4.60
2023-04-18T02:16:06.177Z,4.83
2023-04-18T02:19:09.197Z,6.68
2023-04-18T02:22:11.755Z,5.28
2023-04-18T02:25:14.249Z,5.93
2023-04-18T02:28:16.747Z,6.80
2023-04-18T02:31:19.367Z,5.30
2023-04-18T02:34:21.912Z,6.53
2023-04-18T02:37:24.335Z,7.25
2023-04-18T02:40:26.916Z,5.30
2023-04-18T02:43:29.557Z,7.07
2023-04-18T02:46:32.736Z,6.00
2023-04-18T02:49:36.018Z,5.78
2023-04-18T02:52:38.551Z,5.85
2023-04-18T02:55:43.105Z,5.63
2023-04-18T02:58:45.762Z,5.83
2023-04-18T03:02:14.885Z,5.03
2023-04-18T03:05:24.778Z,5.90
2023-04-18T03:08:30.775Z,5.85
2023-04-18T03:11:33.654Z,6.47
2023-04-18T03:14:36.325Z,5.63
2023-04-18T03:17:39.465Z,6.10
2023-04-18T03:20:42.345Z,6.22
2023-04-18T03:23:45.005Z,5.55
2023-04-18T03:26:47.709Z,6.75
2023-04-18T03:29:51.966Z,7.17
2023-04-18T03:32:56.209Z,4.87
2023-04-18T03:35:59.401Z,8.30
2023-04-18T03:39:02.588Z,4.93
2023-04-18T03:42:05.824Z,5.88
2023-04-18T03:45:09.973Z,5.77
2023-04-18T03:48:13.087Z,6.07
2023-04-18T03:51:18.980Z,7.28
2023-04-18T03:54:22.682Z,6.20
2023-04-18T03:57:25.325Z,6.90
2023-04-18T04:00:28.020Z,6.33
2023-04-18T04:03:37.156Z,5.97
2023-04-18T04:06:40.622Z,6.63
2023-04-18T04:09:43.239Z,7.18
2023-04-18T04:12:46.731Z,5.95
2023-04-18T04:15:49.730Z,5.47
2023-04-18T04:18:52.382Z,5.37
2023-04-18T04:21:58.952Z,6.07
2023-04-18T04:25:02.776Z,6.80
2023-04-18T04:28:11.695Z,7.57
2023-04-18T04:31:24.265Z,8.70
2023-04-18T04:34:26.947Z,6.10
2023-04-18T04:37:29.887Z,8.82
2023-04-18T04:40:47.849Z,5.82
2023-04-18T04:43:51.327Z,5.50
2023-04-18T04:46:58.024Z,5.83
2023-04-18T04:50:07.813Z,6.27
2023-04-18T04:53:11.803Z,6.22
2023-04-18T04:56:14.798Z,5.25
2023-04-18T04:59:18.081Z,6.50
2023-04-18T05:02:23.404Z,5.47
2023-04-18T05:05:26.105Z,5.63
2023-04-18T05:08:28.972Z,6.28
2023-04-18T05:11:31.493Z,7.28
2023-04-18T05:14:34.072Z,11.77
2023-04-18T05:17:36.650Z,4.73
2023-04-18T05:20:39.188Z,6.20
2023-04-18T05:23:41.727Z,5.70
2023-04-18T05:26:44.342Z,6.35
2023-04-18T05:29:47.964Z,6.10
2023-04-18T05:32:50.919Z,6.57
2023-04-18T05:35:53.852Z,5.83
2023-04-18T05:38:56.507Z,6.68
2023-04-18T05:41:59.402Z,7.20
2023-04-18T05:45:02.221Z,6.72
2023-04-18T05:48:05.615Z,6.93
2023-04-18T05:51:09.101Z,7.93
2023-04-18T05:54:13.393Z,7.82
2023-04-18T05:57:16.304Z,12.93
2023-04-18T06:00:20.183Z,10.05
2023-04-18T06:03:22.976Z,11.90
2023-04-18T06:06:26.202Z,12.40
2023-04-18T06:09:28.722Z,6.90
2023-04-18T06:12:31.270Z,7.90
2023-04-18T06:15:34.913Z,8.45
2023-04-18T06:18:37.564Z,7.43
2023-04-18T06:21:42.213Z,4.13
2023-04-18T06:24:44.961Z,8.20
2023-04-18T06:27:47.709Z,25.58
2023-04-18T06:30:50.729Z,14.45
2023-04-18T06:33:53.295Z,9.10
2023-04-18T06:36:56.114Z,6.93
2023-04-18T06:39:58.772Z,5.72
2023-04-18T06:43:01.455Z,5.05
2023-04-18T06:46:07.176Z,6.55
2023-04-18T06:49:10.051Z,4.30
2023-04-18T06:52:12.837Z,3.23
2023-04-18T06:55:15.775Z,4.07
2023-04-18T06:58:18.549Z,3.22
2023-04-18T07:01:21.180Z,2.95
2023-04-18T07:04:23.891Z,3.90
2023-04-18T07:07:26.665Z,3.90
2023-04-18T07:10:29.978Z,3.85
2023-04-18T07:13:32.977Z,2.67
2023-04-18T07:16:35.724Z,2.38
2023-04-18T07:19:41.859Z,4.43
2023-04-18T07:22:44.483Z,2.97
2023-04-18T07:25:47.389Z,9.25
2023-04-18T07:28:50.003Z,2.97
2023-04-18T07:31:52.570Z,2.90
2023-04-18T07:34:57.502Z,2.53
2023-04-18T07:38:00.036Z,3.00
2023-04-18T07:41:03.418Z,2.28
2023-04-18T07:44:05.970Z,3.05
2023-04-18T07:47:11.507Z,11.98
2023-04-18T07:50:14.067Z,10.27
2023-04-18T07:53:17.093Z,9.47
2023-04-18T07:56:19.728Z,13.60
2023-04-18T07:59:22.546Z,7.28
2023-04-18T08:02:25.702Z,7.05
2023-04-18T08:05:29.518Z,3.20
2023-04-18T08:08:32.082Z,1.87
2023-04-18T08:11:35.292Z,2.92
2023-04-18T08:14:38.146Z,4.03
2023-04-18T08:17:42.755Z,3.42
2023-04-18T08:20:45.795Z,2.23
2023-04-18T08:23:48.670Z,3.00
2023-04-18T08:26:51.111Z,2.85
2023-04-18T08:29:55.428Z,2.33
2023-04-18T08:32:59.080Z,3.70
2023-04-18T08:36:01.709Z,2.93
2023-04-18T08:39:04.632Z,2.83
2023-04-18T08:42:10.411Z,2.80
2023-04-18T08:45:16.542Z,2.67
2023-04-18T08:48:19.172Z,2.97
2023-04-18T08:51:21.790Z,3.03
2023-04-18T08:54:25.587Z,3.60
2023-04-18T08:57:31.082Z,3.20
2023-04-18T09:00:36.602Z,2.75
2023-04-18T09:03:40.615Z,2.67
2023-04-18T09:06:54.970Z,2.80
2023-04-18T09:09:57.767Z,4.23
2023-04-18T09:13:03.538Z,3.53
2023-04-18T09:16:07.260Z,5.20
2023-04-18T09:19:18.729Z,4.95
2023-04-18T09:22:21.986Z,2.30
2023-04-18T09:25:29.328Z,4.40
2023-04-18T09:28:33.711Z,2.85
2023-04-18T09:32:00.126Z,3.00
2023-04-18T09:35:05.563Z,2.10
2023-04-18T09:38:08.282Z,2.93
2023-04-18T09:41:13.211Z,4.70
2023-04-18T09:44:17.717Z,4.50
2023-04-18T09:47:20.611Z,4.72
2023-04-18T09:50:23.303Z,2.72
2023-04-18T09:53:26.855Z,2.33
2023-04-18T09:56:32.776Z,3.17
2023-04-18T09:59:52.051Z,1.75
2023-04-18T10:03:10.056Z,3.28
2023-04-18T10:06:16.475Z,3.33
2023-04-18T10:09:20.939Z,1.33
2023-04-18T10:12:24.363Z,3.37
2023-04-18T10:15:31.982Z,1.50
2023-04-18T10:18:36.746Z,1.15
2023-04-18T10:21:57.465Z,3.22
2023-04-18T10:25:00.277Z,3.83
2023-04-18T10:28:04.497Z,1.63
2023-04-18T10:31:07.907Z,2.95
2023-04-18T10:34:17.513Z,3.83
2023-04-18T10:37:20.358Z,2.25
2023-04-18T10:40:34.326Z,4.30
2023-04-18T10:44:15.800Z,3.77
2023-04-18T10:47:20.203Z,2.92
2023-04-18T10:50:24.395Z,3.50
2023-04-18T10:53:31.522Z,6.05
2023-04-18T10:56:34.256Z,5.47
2023-04-18T10:59:42.437Z,12.17
2023-04-18T11:02:50.269Z,3.38
2023-04-18T11:06:02.002Z,2.10
2023-04-18T11:09:14.616Z,4.45
2023-04-18T11:12:17.240Z,2.40
2023-04-18T11:15:21.658Z,5.17
2023-04-18T11:18:24.607Z,2.20
2023-04-18T11:21:31.708Z,2.38
2023-04-18T11:24:34.416Z,3.38
2023-04-18T11:27:37.094Z,2.97
2023-04-18T11:30:41.211Z,2.47
2023-04-18T11:33:47.344Z,1.45
2023-04-18T11:36:51.406Z,3.70
2023-04-18T11:39:54.163Z,2.03
2023-04-18T11:42:56.902Z,1.87
2023-04-18T11:46:00.455Z,4.17
2023-04-18T11:49:02.992Z,5.65
2023-04-18T11:52:13.174Z,2.20
2023-04-18T11:55:18.555Z,2.42
2023-04-18T11:58:30.687Z,1.30
2023-04-18T12:01:33.463Z,1.73
2023-04-18T12:04:53.345Z,2.67
2023-04-18T12:07:56.768Z,1.92
2023-04-18T12:10:59.344Z,2.85
2023-04-18T12:14:03.552Z,2.00
2023-04-18T12:17:06.934Z,1.10
2023-04-18T12:20:10.763Z,3.88
2023-04-18T12:23:34.451Z,3.83
2023-04-18T12:26:45.810Z,2.80
2023-04-18T12:29:48.690Z,2.73
2023-04-18T12:32:54.496Z,7.20
2023-04-18T12:35:57.488Z,3.22
2023-04-18T12:39:00.185Z,3.65
2023-04-18T12:42:02.756Z,3.92
2023-04-18T12:45:07.818Z,2.73
2023-04-18T12:48:10.648Z,1.67
2023-04-18T12:51:13.272Z,5.82
2023-04-18T12:54:16.091Z,3.58
2023-04-18T12:57:19.029Z,4.05
2023-04-18T13:00:26.837Z,2.88
2023-04-18T13:03:29.716Z,3.73
2023-04-18T13:06:32.333Z,2.53
2023-04-18T13:09:34.986Z,2.97
2023-04-18T13:12:38.401Z,2.20
2023-04-18T13:15:41.348Z,4.55
2023-04-18T13:18:44.310Z,3.07
2023-04-18T13:21:48.436Z,2.15
2023-04-18T13:24:53.151Z,1.77
2023-04-18T13:27:56.579Z,4.20
2023-04-18T13:30:59.781Z,2.33
2023-04-18T13:34:02.344Z,6.73
2023-04-18T13:37:04.994Z,2.60
2023-04-18T13:40:08.555Z,2.15
2023-04-18T13:43:13.065Z,1.85
2023-04-18T13:46:15.665Z,3.42
2023-04-18T13:49:18.747Z,3.40
2023-04-18T13:52:21.270Z,4.85
2023-04-18T13:55:25.218Z,5.88
2023-04-18T13:58:27.794Z,1.88
2023-04-18T14:01:30.496Z,4.30
2023-04-18T14:04:33.634Z,3.97
2023-04-18T14:07:37.325Z,2.67
2023-04-18T14:10:39.958Z,3.88
2023-04-18T14:13:42.578Z,1.83
2023-04-18T14:16:45.230Z,2.75
2023-04-18T14:19:48.914Z,2.90
2023-04-18T14:22:53.120Z,1.98
2023-04-18T14:25:56.010Z,2.13
2023-04-18T14:28:58.724Z,3.60
2023-04-18T14:32:01.488Z,2.00
2023-04-18T14:35:06.092Z,2.17
2023-04-18T14:38:08.604Z,3.92
2023-04-18T14:41:11.227Z,2.35
2023-04-18T14:44:13.901Z,3.22
2023-04-18T14:47:16.491Z,4.28
2023-04-18T14:50:19.190Z,4.23
2023-04-18T14:53:21.866Z,6.03
2023-04-18T14:56:24.367Z,3.60
2023-04-18T14:59:28.820Z,7.38
2023-04-18T15:02:31.680Z,3.72
2023-04-18T15:05:35.010Z,2.53
2023-04-18T15:08:40.523Z,2.50
2023-04-18T15:11:43.036Z,3.15
2023-04-18T15:14:45.557Z,4.03
2023-04-18T15:17:48.096Z,3.70
2023-04-18T15:20:51.785Z,3.30
2023-04-18T15:23:54.349Z,2.15
2023-04-18T15:26:58.760Z,3.50
2023-04-18T15:30:02.414Z,4.65
2023-04-18T15:33:06.319Z,3.03
2023-04-18T15:36:10.112Z,2.90
2023-04-18T15:39:13.294Z,2.10
2023-04-18T15:42:16.031Z,4.03
2023-04-18T15:45:18.595Z,2.78
2023-04-18T15:48:21.264Z,4.75
2023-04-18T15:51:28.375Z,5.67
2023-04-18T15:54:30.836Z,4.20
2023-04-18T15:57:33.362Z,2.42
2023-04-18T16:00:35.919Z,3.95
2023-04-18T16:03:39.872Z,3.95
2023-04-18T16:06:42.973Z,2.07
2023-04-18T16:09:45.545Z,2.83
2023-04-18T16:12:48.282Z,3.38
2023-04-18T16:15:50.879Z,5.10
2023-04-18T16:18:53.410Z,2.75
2023-04-18T16:21:56.901Z,4.27
2023-04-18T16:24:59.430Z,2.75
2023-04-18T16:28:02.004Z,3.40
2023-04-18T16:31:06.143Z,2.45
2023-04-18T16:34:09.981Z,3.67
2023-04-18T16:37:12.438Z,5.87
2023-04-18T16:40:15.316Z,2.70
2023-04-18T16:43:17.890Z,3.10
2023-04-18T16:46:20.432Z,3.53
2023-04-18T16:49:23.754Z,3.10
2023-04-18T16:52:26.296Z,6.90
2023-04-18T16:55:29.018Z,3.38
2023-04-18T16:58:31.553Z,4.00
2023-04-18T17:01:34.326Z,2.67
2023-04-18T17:04:37.091Z,2.10
2023-04-18T17:07:39.698Z,6.13
2023-04-18T17:10:42.596Z,2.17
2023-04-18T17:13:45.700Z,4.72
2023-04-18T17:16:49.563Z,3.67
2023-04-18T17:19:53.455Z,5.17
2023-04-18T17:22:57.317Z,2.60
2023-04-18T17:25:59.761Z,3.63
2023-04-18T17:29:04.249Z,4.32
2023-04-18T17:32:07.169Z,3.67
2023-04-18T17:35:10.442Z,3.07
2023-04-18T17:38:13.043Z,3.00
2023-04-18T17:41:17.840Z,6.53
2023-04-18T17:44:20.774Z,2.65
2023-04-18T17:47:25.189Z,3.35
2023-04-18T17:50:28.161Z,4.93
2023-04-18T17:53:32.168Z,7.53
2023-04-18T17:56:35.457Z,8.05
2023-04-18T17:59:38.827Z,9.32
2023-04-18T18:02:44.885Z,24.52
2023-04-18T18:05:49.652Z,36.00
2023-04-18T18:08:52.306Z,32.13
2023-04-18T18:11:56.017Z,26.08
2023-04-18T18:14:59.146Z,25.92
2023-04-18T18:18:02.200Z,20.52
2023-04-18T18:21:05.391Z,34.03
2023-04-18T18:24:08.938Z,32.90
2023-04-18T18:27:11.520Z,41.83
2023-04-18T18:30:14.857Z,39.42
2023-04-18T18:33:17.804Z,27.50
2023-04-18T18:36:20.519Z,67.03
2023-04-18T18:39:23.507Z,62.70
2023-04-18T18:42:27.024Z,62.35
2023-04-18T18:45:30.068Z,45.42
2023-04-18T18:48:37.041Z,22.52
2023-04-18T18:51:41.014Z,9.90
2023-04-18T18:54:45.501Z,14.70
2023-04-18T18:57:48.455Z,24.35
2023-04-18T19:00:51.832Z,9.32
2023-04-18T19:03:54.970Z,8.77
2023-04-18T19:06:58.216Z,7.27
2023-04-18T19:10:01.790Z,6.00
2023-04-18T19:13:04.660Z,6.47
2023-04-18T19:16:07.738Z,6.50
2023-04-18T19:19:10.960Z,4.25
2023-04-18T19:22:13.828Z,5.70
2023-04-18T19:25:17.771Z,4.97
2023-04-18T19:28:22.664Z,4.95
2023-04-18T19:31:26.202Z,6.00
2023-04-18T19:34:29.270Z,5.18
2023-04-18T19:37:32.435Z,4.10
2023-04-18T19:40:35.380Z,5.10
2023-04-18T19:43:39.036Z,3.15
2023-04-18T19:46:41.824Z,3.08
2023-04-18T19:49:44.757Z,4.07
2023-04-18T19:52:48.183Z,4.67
2023-04-18T19:55:51.018Z,4.00
2023-04-18T19:58:54.065Z,3.85
2023-04-18T20:01:59.499Z,3.40
2023-04-18T20:05:06.431Z,4.10
2023-04-18T20:08:10.054Z,5.17
2023-04-18T20:11:14.335Z,4.67
2023-04-18T20:14:18.026Z,5.97
2023-04-18T20:17:21.168Z,4.03
2023-04-18T20:20:23.989Z,10.85
2023-04-18T20:23:26.934Z,8.00
2023-04-18T20:26:29.741Z,3.80
2023-04-18T20:29:32.631Z,5.00
2023-04-18T20:32:35.516Z,5.30
2023-04-18T20:35:38.373Z,5.53
2023-04-18T20:38:41.390Z,6.30
2023-04-18T20:41:46.733Z,4.50
2023-04-18T20:44:49.276Z,4.78
2023-04-18T20:47:52.693Z,3.70
2023-04-18T20:50:55.353Z,3.22
2023-04-18T20:53:57.904Z,3.03
2023-04-18T20:57:00.952Z,5.13
2023-04-18T21:00:06.429Z,3.47
2023-04-18T21:03:09.200Z,5.32
2023-04-18T21:06:12.192Z,4.00
2023-04-18T21:09:15.098Z,3.57
2023-04-18T21:12:17.977Z,4.23
2023-04-18T21:15:20.580Z,3.85
2023-04-18T21:18:23.604Z,4.60
2023-04-18T21:21:26.080Z,6.47
2023-04-18T21:24:28.642Z,4.40
2023-04-18T21:27:31.078Z,3.50
2023-04-18T21:30:34.740Z,3.55
2023-04-18T21:33:37.390Z,3.60
2023-04-18T21:36:40.184Z,3.63
2023-04-18T21:39:42.813Z,4.40
2023-04-18T21:42:46.006Z,3.73
2023-04-18T21:45:49.739Z,4.35
2023-04-18T21:48:52.575Z,6.57
2023-04-18T21:51:55.169Z,3.92
2023-04-18T21:54:59.281Z,4.50
2023-04-18T21:58:01.800Z,3.03
2023-04-18T22:01:04.639Z,6.43
2023-04-18T22:04:07.735Z,3.13
2023-04-18T22:07:11.585Z,3.78
2023-04-18T22:10:14.176Z,3.97
2023-04-18T22:13:19.061Z,4.57
2023-04-18T22:16:24.780Z,4.10
2023-04-18T22:19:29.568Z,5.28
2023-04-18T22:22:32.130Z,2.92
2023-04-18T22:25:34.913Z,3.60
2023-04-18T22:28:37.750Z,3.17
2023-04-18T22:31:40.363Z,5.18
2023-04-18T22:34:43.158Z,4.90
2023-04-18T22:37:45.973Z,2.42
2023-04-18T22:40:48.790Z,4.53
2023-04-18T22:43:51.406Z,3.27
2023-04-18T22:46:56.525Z,3.58
2023-04-18T22:49:58.978Z,3.85
2023-04-18T22:53:01.478Z,4.45
2023-04-18T22:56:04.136Z,4.07
2023-04-18T22:59:06.665Z,4.53
2023-04-18T23:02:10.585Z,4.10
2023-04-18T23:05:15.670Z,2.70
2023-04-18T23:08:20.686Z,3.08
2023-04-18T23:11:23.520Z,4.40
2023-04-18T23:14:26.001Z,5.90
2023-04-18T23:17:28.545Z,4.88
2023-04-18T23:20:31.083Z,4.03
2023-04-18T23:23:33.580Z,4.15
2023-04-18T23:26:36.070Z,4.03
2023-04-18T23:29:39.263Z,4.40
2023-04-18T23:32:42.056Z,3.72
2023-04-18T23:35:44.676Z,2.97
2023-04-18T23:38:47.325Z,4.03
2023-04-18T23:41:50.391Z,4.43
2023-04-18T23:44:52.928Z,5.30
2023-04-18T23:47:55.752Z,3.47
2023-04-18T23:50:58.724Z,6.85
2023-04-18T23:54:01.315Z,4.78
2023-04-18T23:57:03.926Z,4.90
